C2016 KLAL-KVQQ
Flight info
| Callsign | C2016 |
|---|---|
| Flight time | N/A |
| Altitude | 17500 |
| Route | VFR |
| Aircraft | C30J/M-V/N |
Departure
| Time | 2026-04-26 22:56 |
|---|---|
| Airport | Lakeland Linder International Airport (KLAL) |
Arrival
| Time | N/A |
|---|---|
| Airport | Cecil Airport (KVQQ) |
| Time | Latitude | Longitude | Altitude | Speed | Heading |
|---|---|---|---|---|---|
| 2026-04-26 22:42 | 27.98762 | -82.01552 | 148 ft | 0 kts | 318° |
| 2026-04-26 22:44 | 27.98763 | -82.01552 | 148 ft | 0 kts | 318° |
| 2026-04-26 22:48 | 27.98767 | -82.01555 | 148 ft | 1 kts | 334° |
| 2026-04-26 22:48 | 27.98769 | -82.01555 | 148 ft | 0 kts | 348° |
| 2026-04-26 22:48 | 27.98778 | -82.01547 | 148 ft | 0 kts | 91° |
| 2026-04-26 22:49 | 27.98778 | -82.01558 | 148 ft | 0 kts | 97° |
| 2026-04-26 22:49 | 27.98776 | -82.01551 | 148 ft | 0 kts | 110° |
| 2026-04-26 22:49 | 27.98778 | -82.01555 | 148 ft | 1 kts | 169° |
| 2026-04-26 22:49 | 27.98758 | -82.01551 | 148 ft | 1 kts | 163° |
| 2026-04-26 22:50 | 27.98745 | -82.01545 | 148 ft | 2 kts | 155° |
| 2026-04-26 22:50 | 27.98736 | -82.01529 | 148 ft | 2 kts | 101° |
| 2026-04-26 22:50 | 27.98734 | -82.01500 | 147 ft | 5 kts | 93° |
| 2026-04-26 22:50 | 27.98734 | -82.01467 | 147 ft | 6 kts | 87° |
| 2026-04-26 22:51 | 27.98736 | -82.01397 | 146 ft | 12 kts | 89° |
| 2026-04-26 22:51 | 27.98737 | -82.01284 | 146 ft | 8 kts | 90° |
| 2026-04-26 22:51 | 27.98738 | -82.01230 | 146 ft | 5 kts | 88° |
| 2026-04-26 22:51 | 27.98739 | -82.01192 | 146 ft | 5 kts | 88° |
| 2026-04-26 22:52 | 27.98740 | -82.01152 | 146 ft | 14 kts | 88° |
| 2026-04-26 22:52 | 27.98745 | -82.00968 | 146 ft | 23 kts | 89° |
| 2026-04-26 22:52 | 27.98748 | -82.00800 | 146 ft | 10 kts | 90° |
| 2026-04-26 22:52 | 27.98754 | -82.00757 | 146 ft | 1 kts | 38° |
| 2026-04-26 22:53 | 27.98788 | -82.00756 | 146 ft | 4 kts | 1° |
| 2026-04-26 22:53 | 27.98812 | -82.00756 | 146 ft | 5 kts | 359° |
| 2026-04-26 22:53 | 27.98827 | -82.00757 | 145 ft | 0 kts | 357° |
| 2026-04-26 22:55 | 27.98884 | -82.00760 | 145 ft | 13 kts | 358° |
| 2026-04-26 22:55 | 27.98929 | -82.00791 | 146 ft | 8 kts | 286° |
| 2026-04-26 22:55 | 27.98929 | -82.00842 | 146 ft | 5 kts | 269° |
| 2026-04-26 22:56 | 27.98929 | -82.00960 | 146 ft | 49 kts | 270° |
| 2026-04-26 22:56 | 27.98929 | -82.01601 | 146 ft | 115 kts | 270° |
| 2026-04-26 22:56 | 27.98908 | -82.02728 | 349 ft | 160 kts | 271° |
| 2026-04-26 22:56 | 27.98928 | -82.04088 | 806 ft | 181 kts | 272° |
| 2026-04-26 22:57 | 27.98916 | -82.05428 | 1356 ft | 157 kts | 263° |
| 2026-04-26 22:57 | 27.98474 | -82.06612 | 1622 ft | 168 kts | 224° |
| 2026-04-26 22:57 | 27.97370 | -82.07018 | 1367 ft | 179 kts | 177° |
| 2026-04-26 22:57 | 27.96163 | -82.06765 | 1106 ft | 168 kts | 174° |
| 2026-04-26 22:58 | 27.95040 | -82.06532 | 1121 ft | 160 kts | 175° |
| 2026-04-26 22:58 | 27.94055 | -82.05990 | 1087 ft | 167 kts | 130° |
| 2026-04-26 22:58 | 27.93685 | -82.04741 | 1156 ft | 172 kts | 94° |
| 2026-04-26 22:58 | 27.93698 | -82.03368 | 1276 ft | 173 kts | 86° |
| 2026-04-26 22:59 | 27.93790 | -82.02057 | 1378 ft | 171 kts | 85° |
| 2026-04-26 22:59 | 27.93895 | -82.00752 | 1476 ft | 173 kts | 83° |
| 2026-04-26 22:59 | 27.94003 | -81.99392 | 1654 ft | 172 kts | 84° |
| 2026-04-26 22:59 | 27.94108 | -81.98054 | 1826 ft | 169 kts | 83° |
| 2026-04-26 23:00 | 27.94203 | -81.96762 | 2005 ft | 166 kts | 84° |
| 2026-04-26 23:00 | 27.94471 | -81.95465 | 2174 ft | 167 kts | 52° |
| 2026-04-26 23:00 | 27.95396 | -81.94797 | 2375 ft | 158 kts | 7° |
| 2026-04-26 23:00 | 27.96469 | -81.94664 | 2574 ft | 157 kts | 358° |
| 2026-04-26 23:01 | 27.97610 | -81.94711 | 2129 ft | 166 kts | 347° |
| 2026-04-26 23:01 | 27.98581 | -81.95303 | 1765 ft | 158 kts | 310° |
| 2026-04-26 23:01 | 27.99026 | -81.96396 | 1255 ft | 159 kts | 279° |
| 2026-04-26 23:01 | 27.98986 | -81.97689 | 759 ft | 166 kts | 266° |
| 2026-04-26 23:02 | 27.98911 | -81.98968 | 475 ft | 162 kts | 268° |
| 2026-04-26 23:02 | 27.98911 | -82.00217 | 246 ft | 151 kts | 272° |
| 2026-04-26 23:02 | 27.98929 | -82.01362 | 232 ft | 143 kts | 272° |
| 2026-04-26 23:02 | 27.98912 | -82.02509 | 303 ft | 146 kts | 270° |
| 2026-04-26 23:03 | 27.98907 | -82.03652 | 351 ft | 142 kts | 272° |
| 2026-04-26 23:03 | 27.98928 | -82.04767 | 548 ft | 142 kts | 272° |
| 2026-04-26 23:03 | 27.98920 | -82.05937 | 895 ft | 146 kts | 271° |
| 2026-04-26 23:03 | 27.98910 | -82.07048 | 1341 ft | 145 kts | 270° |
| 2026-04-26 23:04 | 27.98889 | -82.08150 | 2175 ft | 128 kts | 268° |
| 2026-04-26 23:04 | 27.98668 | -82.09217 | 2499 ft | 165 kts | 248° |
| 2026-04-26 23:04 | 27.97839 | -82.10330 | 1710 ft | 207 kts | 219° |
| 2026-04-26 23:04 | 27.96378 | -82.11000 | 1734 ft | 247 kts | 191° |